Time;durP1;ratioP1;P1;durP2;ratioP2;P2;SDS_P1;SDS_P2;PMS_P1;PMS_P2;Temp;Humidity;BMP_temperature;BMP_pressure;BME280_temperature;BME280_humidity;BME280_pressure;Samples;Min_cycle;Max_cycle;Signal;HPM_P1;HPM_P2
2024/01/21 00:00:39;;;;;;;86.40;31.38;;;;;;;-5.13;100.00;101771.47;5021522;28;20483;-74
2024/01/21 00:03:09;;;;;;;85.90;31.00;;;;;;;-5.11;100.00;101769.81;5031569;28;20067;-73
2024/01/21 00:05:40;;;;;;;84.22;30.35;;;;;;;-5.12;100.00;101745.69;5037583;28;20091;-74
2024/01/21 00:08:09;;;;;;;82.30;31.60;;;;;;;-5.10;100.00;101759.56;5043017;28;20045;-74
2024/01/21 00:10:37;;;;;;;74.78;29.95;;;;;;;-5.15;100.00;101760.19;5029302;28;20037;-73
2024/01/21 00:13:06;;;;;;;84.57;31.38;;;;;;;-5.23;100.00;101772.81;5033892;28;20049;-73
2024/01/21 00:15:34;;;;;;;78.43;29.67;;;;;;;-5.30;100.00;101763.94;5030474;28;20052;-74
2024/01/21 00:18:07;;;;;;;79.07;29.98;;;;;;;-5.46;100.00;101728.03;5043475;28;20034;-77
2024/01/21 00:20:37;;;;;;;76.82;29.58;;;;;;;-5.37;100.00;101746.47;5037845;28;20041;-71
2024/01/21 00:23:07;;;;;;;81.65;29.67;;;;;;;-5.37;100.00;101735.25;5020460;28;20042;-72
2024/01/21 00:25:43;;;;;;;64.63;23.00;;;;;;;-5.40;100.00;101746.34;5047345;28;20049;-75
2024/01/21 00:28:13;;;;;;;79.45;29.48;;;;;;;-5.44;100.00;101741.88;5021064;28;20045;-73
2024/01/21 00:30:41;;;;;;;80.47;29.10;;;;;;;-5.49;100.00;101748.53;5011659;28;20040;-72
2024/01/21 00:33:10;;;;;;;80.53;28.27;;;;;;;-5.49;100.00;101743.38;5041836;28;20112;-73
2024/01/21 00:35:40;;;;;;;74.32;28.55;;;;;;;-5.47;100.00;101731.44;5041187;28;20579;-73
2024/01/21 00:38:11;;;;;;;76.13;29.85;;;;;;;-5.70;100.00;101680.63;5028471;28;20112;-73
2024/01/21 00:40:41;;;;;;;76.78;28.00;;;;;;;-5.44;100.00;101710.91;5038636;28;20085;-75
2024/01/21 00:43:11;;;;;;;77.63;29.23;;;;;;;-5.28;100.00;101729.56;5042385;28;20050;-75
2024/01/21 00:45:40;;;;;;;77.43;29.08;;;;;;;-5.38;100.00;101716.31;5042167;28;20115;-73
2024/01/21 00:48:11;;;;;;;77.75;29.35;;;;;;;-5.33;100.00;101734.53;5030011;28;20053;-75
2024/01/21 00:50:41;;;;;;;78.55;29.13;;;;;;;-5.41;100.00;101742.00;5045450;28;20028;-76
2024/01/21 00:53:12;;;;;;;58.08;21.50;;;;;;;-5.44;100.00;101741.88;5050348;28;20049;-74
2024/01/21 00:55:45;;;;;;;74.80;27.67;;;;;;;-5.60;100.00;101724.03;5034203;28;20075;-75
2024/01/21 00:58:13;;;;;;;77.60;29.60;;;;;;;-5.53;100.00;101732.91;5044654;28;20099;-73
2024/01/21 01:00:41;;;;;;;77.30;28.80;;;;;;;-5.59;100.00;101727.50;5039479;28;20042;-74
2024/01/21 01:03:10;;;;;;;75.45;27.25;;;;;;;-5.69;100.00;101728.84;5023304;28;21298;-73
2024/01/21 01:05:40;;;;;;;59.47;21.67;;;;;;;-5.66;100.00;101747.00;5007522;28;20045;-72
2024/01/21 01:08:12;;;;;;;72.22;27.20;;;;;;;-5.70;100.00;101747.72;5038711;28;20148;-74
2024/01/21 01:10:41;;;;;;;73.72;27.02;;;;;;;-5.75;100.00;101734.63;5039833;28;20053;-73
2024/01/21 01:13:12;;;;;;;70.88;27.58;;;;;;;-5.72;100.00;101736.44;5037918;28;20056;-72
2024/01/21 01:15:41;;;;;;;74.57;27.05;;;;;;;-5.82;100.00;101726.56;5021114;28;20044;-72
2024/01/21 01:18:09;;;;;;;74.38;26.75;;;;;;;-5.88;100.00;101716.91;5026268;28;20053;-74
2024/01/21 01:20:38;;;;;;;73.78;27.23;;;;;;;-5.85;100.00;101719.59;5027050;28;20042;-74
2024/01/21 01:23:07;;;;;;;70.75;27.45;;;;;;;-5.88;100.00;101721.22;5003748;28;20083;-74
2024/01/21 01:25:37;;;;;;;76.07;28.05;;;;;;;-5.83;100.00;101727.41;5021202;28;20042;-75
2024/01/21 01:28:05;;;;;;;62.35;22.10;;;;;;;-5.84;100.00;101720.50;5028281;28;20176;-74
2024/01/21 01:30:33;;;;;;;78.25;27.63;;;;;;;-5.98;100.00;101721.66;5018639;28;20108;-71
2024/01/21 01:33:05;;;;;;;59.55;21.48;;;;;;;-5.97;100.00;101725.97;5022962;28;20477;-73
2024/01/21 01:35:35;;;;;;;70.00;27.45;;;;;;;-6.00;100.00;101728.47;5016835;28;20682;-74
2024/01/21 01:38:05;;;;;;;58.50;22.08;;;;;;;-6.21;100.00;101702.66;5036819;28;20088;-72
2024/01/21 01:40:35;;;;;;;80.68;28.88;;;;;;;-6.18;100.00;101711.41;5022535;28;20045;-73
2024/01/21 01:43:06;;;;;;;78.28;28.45;;;;;;;-6.13;100.00;101714.16;5003263;28;20053;-75
2024/01/21 01:45:37;;;;;;;72.25;27.60;;;;;;;-6.16;100.00;101708.91;5017332;28;20049;-73
2024/01/21 01:48:07;;;;;;;76.25;27.65;;;;;;;-6.19;100.00;101712.22;5027191;28;20042;-73
2024/01/21 01:50:37;;;;;;;72.55;27.65;;;;;;;-6.24;100.00;101698.25;5024324;28;20065;-73
2024/01/21 01:53:06;;;;;;;70.05;24.98;;;;;;;-6.33;100.00;101695.31;5020171;28;20060;-74
2024/01/21 01:55:37;;;;;;;75.88;27.58;;;;;;;-6.44;100.00;101692.25;5016494;28;21710;-75
2024/01/21 01:58:09;;;;;;;;;;;;;;;-6.43;100.00;101687.97;5018287;28;20167;-72
2024/01/21 02:00:47;;;;;;;75.28;26.35;;;;;;;-6.46;100.00;101693.91;5036707;28;19925;-72
2024/01/21 02:03:19;;;;;;;;;;;;;;;-6.48;100.00;101692.09;5037314;28;20065;-71
2024/01/21 02:05:47;;;;;;;67.53;25.13;;;;;;;-6.72;100.00;101654.16;5014999;28;20090;-71
2024/01/21 02:08:19;;;;;;;67.20;24.15;;;;;;;-6.54;100.00;101684.09;5023175;28;20115;-73
2024/01/21 02:10:48;;;;;;;65.43;25.85;;;;;;;-6.48;100.00;101689.50;5022337;28;20136;-74
2024/01/21 02:13:17;;;;;;;67.40;25.48;;;;;;;-6.46;100.00;101695.59;5019610;28;20050;-70
2024/01/21 02:15:45;;;;;;;68.78;25.15;;;;;;;-6.52;100.00;101685.03;5032170;28;20589;-72
2024/01/21 02:18:18;;;;;;;67.85;26.30;;;;;;;-6.46;100.00;101677.56;5037588;28;20045;-72
2024/01/21 02:20:47;;;;;;;64.63;26.27;;;;;;;-6.37;100.00;101681.41;5036595;28;20042;-71
2024/01/21 02:23:16;;;;;;;66.15;26.17;;;;;;;-6.48;100.00;101664.63;5017775;28;20038;-70
2024/01/21 02:25:44;;;;;;;67.93;26.83;;;;;;;-6.44;100.00;101673.34;5016947;28;20134;-71
2024/01/21 02:28:13;;;;;;;64.82;24.75;;;;;;;-6.45;100.00;101667.31;5021853;28;20045;-71
2024/01/21 02:30:43;;;;;;;69.63;24.67;;;;;;;-6.47;100.00;101668.06;5038318;28;20104;-71
2024/01/21 02:33:13;;;;;;;63.38;25.08;;;;;;;-6.56;100.00;101645.38;5034453;28;20340;-71
2024/01/21 02:35:41;;;;;;;71.13;26.00;;;;;;;-6.35;100.00;101654.81;5015687;28;20535;-69
2024/01/21 02:38:10;;;;;;;62.95;25.10;;;;;;;-6.31;100.00;101643.81;5038665;28;20041;-70
2024/01/21 02:40:40;;;;;;;62.17;24.45;;;;;;;-6.25;100.00;101642.34;5019220;28;22478;-70
2024/01/21 02:43:08;;;;;;;50.25;20.45;;;;;;;-6.23;100.00;101639.84;5030357;28;20048;-71
2024/01/21 02:45:36;;;;;;;62.08;24.95;;;;;;;-6.35;100.00;101640.22;5027365;28;20504;-73
2024/01/21 02:48:05;;;;;;;66.38;25.85;;;;;;;-6.61;100.00;101610.78;5036338;28;20532;-72
2024/01/21 02:50:33;;;;;;;64.25;25.60;;;;;;;-6.47;100.00;101632.00;5036456;28;20077;-74
2024/01/21 02:53:04;;;;;;;66.75;25.90;;;;;;;-6.49;100.00;101631.94;5012073;28;20049;-74
2024/01/21 02:55:32;;;;;;;63.40;25.33;;;;;;;-6.54;100.00;101627.41;5031689;28;20053;-73
2024/01/21 02:58:02;;;;;;;63.42;25.42;;;;;;;-6.59;100.00;101628.91;5022687;28;20528;-72
2024/01/21 03:00:30;;;;;;;60.53;24.00;;;;;;;-6.63;100.00;101633.06;5022476;28;20055;-73
2024/01/21 03:03:00;;;;;;;66.60;25.02;;;;;;;-6.72;100.00;101618.09;5024073;28;20049;-74
2024/01/21 03:05:32;;;;;;;62.72;25.73;;;;;;;-6.63;100.00;101637.34;5014182;28;20577;-72
2024/01/21 03:08:00;;;;;;;62.50;24.75;;;;;;;-6.68;100.00;101629.41;5024772;28;20514;-73
2024/01/21 03:10:28;;;;;;;64.40;24.40;;;;;;;-6.61;100.00;101640.84;5035189;28;20048;-73
2024/01/21 03:13:00;;;;;;;70.38;27.27;;;;;;;-6.62;100.00;101633.94;5019103;28;20056;-75
2024/01/21 03:15:34;;;;;;;63.03;25.00;;;;;;;-6.59;100.00;101626.31;5029794;28;20120;-77
2024/01/21 03:18:07;;;;;;;65.13;26.55;;;;;;;-6.52;100.00;101618.03;5002376;28;20099;-75
2024/01/21 03:20:35;;;;;;;71.65;26.08;;;;;;;-6.56;100.00;101611.88;5033163;28;20041;-74
2024/01/21 03:23:03;;;;;;;64.00;25.65;;;;;;;-6.55;100.00;101613.63;5008274;28;20045;-75
2024/01/21 03:25:31;;;;;;;66.97;26.60;;;;;;;-6.53;100.00;101616.28;5017887;28;20041;-75
2024/01/21 03:28:04;;;;;;;70.43;26.70;;;;;;;-6.54;100.00;101611.94;5037062;28;20049;-72
2024/01/21 03:30:34;;;;;;;66.38;25.40;;;;;;;-6.52;100.00;101598.31;5035797;28;20103;-74
2024/01/21 03:33:02;;;;;;;65.53;24.95;;;;;;;-6.40;100.00;101588.50;5020913;28;20049;-75
2024/01/21 03:35:30;;;;;;;72.15;26.27;;;;;;;-6.42;100.00;101590.13;5033287;28;20041;-74
2024/01/21 03:37:58;;;;;;;64.65;25.65;;;;;;;-6.52;100.00;101576.81;5022035;28;20046;-75
2024/01/21 03:40:27;;;;;;;65.25;26.02;;;;;;;-6.61;100.00;101574.72;5020147;28;20114;-74
2024/01/21 03:42:55;;;;;;;70.20;25.92;;;;;;;-6.59;100.00;101590.25;5036584;28;20068;-75
2024/01/21 03:45:24;;;;;;;67.95;26.55;;;;;;;-6.66;100.00;101578.84;5031030;28;20042;-72
2024/01/21 03:47:55;;;;;;;65.68;24.92;;;;;;;-6.58;100.00;101594.59;5019717;28;20130;-72
2024/01/21 03:50:26;;;;;;;66.65;25.85;;;;;;;-6.79;100.00;101546.53;5018084;28;20116;-71
2024/01/21 03:52:54;;;;;;;65.78;25.58;;;;;;;-6.43;100.00;101597.78;5033166;28;20041;-71
2024/01/21 03:55:25;;;;;;;63.92;25.70;;;;;;;-6.42;100.00;101604.69;5028181;28;20049;-73
2024/01/21 03:57:53;;;;;;;62.05;24.65;;;;;;;-6.37;100.00;101580.88;5037156;28;20038;-70
2024/01/21 04:00:23;;;;;;;63.55;25.75;;;;;;;-6.23;100.00;101596.91;5002002;28;20046;-72
2024/01/21 04:02:59;;;;;;;65.47;24.40;;;;;;;-6.30;100.00;101597.50;5019202;28;20069;-74
2024/01/21 04:05:27;;;;;;;67.20;25.52;;;;;;;-6.33;100.00;101587.06;5012048;28;20053;-71
2024/01/21 04:07:56;;;;;;;67.50;25.67;;;;;;;-6.30;100.00;101589.75;5038554;28;20060;-72
2024/01/21 04:10:23;;;;;;;68.22;26.50;;;;;;;-6.31;100.00;101585.41;5030191;28;20053;-70
2024/01/21 04:12:51;;;;;;;60.95;24.80;;;;;;;-6.27;100.00;101589.84;5003741;28;20422;-72
2024/01/21 04:15:19;;;;;;;60.80;24.58;;;;;;;-6.29;100.00;101582.88;5034588;28;20060;-74
2024/01/21 04:17:47;;;;;;;65.30;25.35;;;;;;;-6.26;100.00;101586.47;5028377;28;20046;-73
2024/01/21 04:20:20;;;;;;;59.75;23.58;;;;;;;-6.26;100.00;101591.63;5005367;28;20128;-72
2024/01/21 04:22:50;;;;;;;59.20;24.88;;;;;;;-6.28;100.00;101582.94;5018725;28;20518;-72
2024/01/21 04:25:19;;;;;;;59.08;24.88;;;;;;;-6.26;100.00;101581.31;5014587;28;20049;-71
2024/01/21 04:27:48;;;;;;;62.78;25.42;;;;;;;-6.28;100.00;101574.31;5024267;28;20104;-74
2024/01/21 04:30:16;;;;;;;61.80;24.92;;;;;;;-6.21;100.00;101594.38;5019450;28;20046;-69
2024/01/21 04:32:45;;;;;;;65.43;25.30;;;;;;;-6.12;100.00;101584.41;5004503;28;20046;-73
2024/01/21 04:35:13;;;;;;;62.15;24.73;;;;;;;-6.10;100.00;101581.09;5014711;28;20072;-74
2024/01/21 04:37:43;;;;;;;60.58;24.77;;;;;;;-6.10;100.00;101578.50;5019085;28;20050;-73
2024/01/21 04:40:13;;;;;;;63.30;24.67;;;;;;;-6.14;100.00;101578.34;5022624;28;20052;-74
2024/01/21 04:42:42;;;;;;;61.90;24.70;;;;;;;-6.14;100.00;101584.34;5019985;28;20141;-74
2024/01/21 04:45:14;;;;;;;66.53;26.63;;;;;;;-6.08;100.00;101581.16;5029623;28;20064;-70
2024/01/21 04:47:43;;;;;;;64.82;26.63;;;;;;;-6.04;100.00;101575.31;5020864;28;20068;-71
2024/01/21 04:50:12;;;;;;;58.75;23.92;;;;;;;-6.05;100.00;101569.25;5003058;28;20056;-74
2024/01/21 04:52:39;;;;;;;56.60;23.95;;;;;;;-6.08;100.00;101565.69;5009173;28;20053;-70
2024/01/21 04:55:12;;;;;;;60.20;26.63;;;;;;;-6.00;100.00;101573.72;5021105;28;20073;-73
2024/01/21 04:57:41;;;;;;;65.30;27.42;;;;;;;-5.97;100.00;101577.28;5024321;28;20045;-74
2024/01/21 05:00:12;;;;;;;62.38;27.85;;;;;;;-5.79;100.00;101592.56;5025386;28;20056;-71
2024/01/21 05:02:44;;;;;;;61.38;27.40;;;;;;;-5.63;100.00;101604.31;5025802;28;20049;-70
2024/01/21 05:05:13;;;;;;;61.25;26.38;;;;;;;-5.57;100.00;101605.44;5032789;28;20104;-72
2024/01/21 05:07:41;;;;;;;58.80;26.08;;;;;;;-5.62;100.00;101601.81;5023588;28;20050;-72
2024/01/21 05:10:12;;;;;;;63.28;26.67;;;;;;;-5.67;100.00;101608.53;5037995;28;20050;-73
2024/01/21 05:12:42;;;;;;;58.33;25.83;;;;;;;-5.77;100.00;101611.53;5005160;28;20072;-73
2024/01/21 05:15:10;;;;;;;59.55;26.73;;;;;;;-5.95;100.00;101585.97;5019533;28;20045;-71
2024/01/21 05:17:38;;;;;;;57.45;25.80;;;;;;;-5.99;100.00;101604.75;5037305;28;20129;-72
2024/01/21 05:20:08;;;;;;;58.80;25.48;;;;;;;-5.91;100.00;101628.22;5035456;28;20073;-76
2024/01/21 05:22:37;;;;;;;;;;;;;;;-5.96;100.00;101622.00;5034655;28;20049;-70
2024/01/21 05:25:08;;;;;;;55.40;22.85;;;;;;;-5.98;100.00;101614.19;5019644;28;19929;-71
2024/01/21 05:27:37;;;;;;;56.03;24.80;;;;;;;-6.08;100.00;101607.81;5016477;28;20045;-71
2024/01/21 05:30:07;;;;;;;57.37;24.40;;;;;;;-6.19;100.00;101608.22;5038184;28;20041;-70
2024/01/21 05:32:37;;;;;;;55.92;24.25;;;;;;;-6.24;100.00;101610.59;5023720;28;20351;-72
2024/01/21 05:35:07;;;;;;;56.38;24.15;;;;;;;-6.38;100.00;101570.50;5015310;28;20523;-70
2024/01/21 05:37:36;;;;;;;56.08;23.42;;;;;;;-6.34;100.00;101590.44;5033888;28;20109;-70
2024/01/21 05:40:06;;;;;;;62.30;25.05;;;;;;;-6.41;100.00;101583.28;5036515;28;20144;-72
2024/01/21 05:42:39;;;;;;;61.20;24.80;;;;;;;-6.53;100.00;101577.63;5034792;28;20042;-69
2024/01/21 05:45:08;;;;;;;59.00;24.45;;;;;;;-6.56;100.00;101583.53;5033754;28;20473;-69
2024/01/21 05:47:36;;;;;;;60.53;24.98;;;;;;;-6.55;100.00;101579.25;5037097;28;20052;-72
2024/01/21 05:50:05;;;;;;;61.55;24.92;;;;;;;-6.79;100.00;101574.88;5025523;28;20041;-72
2024/01/21 05:52:36;;;;;;;65.60;26.20;;;;;;;-6.85;100.00;101584.03;5036340;28;20049;-70
2024/01/21 05:55:07;;;;;;;70.60;26.88;;;;;;;-6.83;100.00;101583.28;5003078;28;20060;-72
2024/01/21 05:57:38;;;;;;;61.45;25.33;;;;;;;-6.79;100.00;101595.47;5034725;28;20042;-72
2024/01/21 06:00:07;;;;;;;66.90;25.48;;;;;;;-6.83;100.00;101590.13;5025518;28;20095;-70
2024/01/21 06:02:43;;;;;;;71.07;26.70;;;;;;;-6.76;100.00;101592.13;5004240;28;20037;-70
2024/01/21 06:05:12;;;;;;;70.20;27.08;;;;;;;-6.81;100.00;101570.47;5001462;28;20045;-71
2024/01/21 06:07:41;;;;;;;76.85;28.95;;;;;;;-6.74;100.00;101578.50;5032806;28;20051;-70
2024/01/21 06:10:09;;;;;;;78.22;27.67;;;;;;;-6.72;100.00;101571.72;5036501;28;20053;-71
2024/01/21 06:12:41;;;;;;;88.15;31.13;;;;;;;-6.60;100.00;101575.59;5034679;28;20062;-72
2024/01/21 06:15:12;;;;;;;84.93;29.05;;;;;;;-6.69;100.00;101560.66;5015512;28;20131;-69
2024/01/21 06:17:42;;;;;;;76.70;29.08;;;;;;;-6.54;100.00;101587.06;5031282;28;20049;-71
2024/01/21 06:20:17;;;;;;;86.70;29.85;;;;;;;-6.43;100.00;101595.22;5023033;28;20078;-71
2024/01/21 06:22:46;;;;;;;89.07;29.65;;;;;;;-6.45;100.00;101571.06;5038593;28;20041;-71
2024/01/21 06:25:17;;;;;;;88.88;30.33;;;;;;;-6.30;100.00;101566.56;5018057;28;20046;-71
2024/01/21 06:27:46;;;;;;;93.05;30.25;;;;;;;-6.25;100.00;101572.75;5037210;28;20052;-69
2024/01/21 06:30:15;;;;;;;95.85;30.90;;;;;;;-6.28;100.00;101577.78;5031424;28;20406;-71
2024/01/21 06:32:46;;;;;;;94.40;31.00;;;;;;;-6.28;100.00;101579.47;5033033;28;20573;-71
2024/01/21 06:35:30;;;;;;;101.70;32.47;;;;;;;-6.19;100.00;101578.16;5020230;28;20049;-70
2024/01/21 06:38:00;;;;;;;90.72;31.27;;;;;;;-6.12;100.00;101563.78;5023474;28;20516;-71
2024/01/21 06:40:29;;;;;;;107.35;32.85;;;;;;;-6.05;100.00;101561.53;5047906;28;20029;-71
2024/01/21 06:43:04;;;;;;;99.20;32.40;;;;;;;-5.96;100.00;101560.09;5031563;28;20073;-71
2024/01/21 06:45:35;;;;;;;99.88;33.10;;;;;;;-5.89;100.00;101564.69;5020018;28;20056;-73
2024/01/21 06:48:07;;;;;;;91.60;32.35;;;;;;;-5.79;100.00;101593.44;5019865;28;20057;-72
2024/01/21 06:50:35;;;;;;;100.20;33.15;;;;;;;-5.81;100.00;101587.31;5007766;28;20536;-72
2024/01/21 06:53:29;;;;;;;95.78;32.22;;;;;;;-5.74;100.00;101591.03;5031938;28;20053;-71
2024/01/21 06:56:04;;;;;;;96.07;32.72;;;;;;;-5.92;100.00;101580.91;5011914;28;20048;-70
2024/01/21 06:58:41;;;;;;;103.65;33.92;;;;;;;-6.05;100.00;101587.31;5022030;28;20168;-70
2024/01/21 07:01:10;;;;;;;97.25;33.00;;;;;;;-6.14;100.00;101579.19;5023916;28;20045;-70
2024/01/21 07:03:39;;;;;;;92.88;32.38;;;;;;;-6.05;100.00;101568.38;5021645;28;20045;-71
2024/01/21 07:06:09;;;;;;;91.07;32.95;;;;;;;-5.93;100.00;101573.13;5010509;28;20096;-69
2024/01/21 07:08:40;;;;;;;104.65;35.75;;;;;;;-5.83;100.00;101555.47;5019489;28;20057;-72
2024/01/21 07:11:09;;;;;;;97.70;33.30;;;;;;;-5.60;100.00;101565.75;5037105;28;20122;-73
2024/01/21 07:13:40;;;;;;;90.72;31.55;;;;;;;-5.67;100.00;101567.22;5020667;28;20045;-71
2024/01/21 07:16:12;;;;;;;95.53;32.53;;;;;;;-5.82;100.00;101577.81;5015449;28;20045;-70
2024/01/21 07:18:44;;;;;;;105.65;33.45;;;;;;;-5.95;100.00;101577.34;5033704;28;20463;-70
2024/01/21 07:21:13;;;;;;;98.70;33.63;;;;;;;-5.84;100.00;101578.63;5034629;28;20413;-72
2024/01/21 07:23:41;;;;;;;99.53;34.83;;;;;;;-5.83;100.00;101585.53;5018487;28;20129;-72
2024/01/21 07:26:10;;;;;;;105.25;34.35;;;;;;;-5.93;100.00;101596.34;5012925;28;20745;-71
2024/01/21 07:28:40;;;;;;;115.40;35.20;;;;;;;-5.99;100.00;101594.41;5018666;28;20045;-71
2024/01/21 07:31:09;;;;;;;97.22;33.15;;;;;;;-5.99;100.00;101576.38;5020192;28;20056;-72
2024/01/21 07:33:37;;;;;;;101.38;32.42;;;;;;;-5.93;100.00;101573.13;5016527;28;20478;-73
2024/01/21 07:36:06;;;;;;;96.93;32.60;;;;;;;-5.90;100.00;101573.25;5027973;28;20040;-73
2024/01/21 07:38:35;;;;;;;93.57;31.35;;;;;;;-5.90;100.00;101566.41;5019899;28;20042;-68
2024/01/21 07:41:04;;;;;;;94.97;31.33;;;;;;;-5.76;100.00;101578.06;5018744;28;20049;-71
2024/01/21 07:43:32;;;;;;;96.53;31.85;;;;;;;-5.74;100.00;101583.28;5021659;28;20617;-73
2024/01/21 07:46:05;;;;;;;96.70;32.28;;;;;;;-5.67;100.00;101582.72;5004613;28;20037;-70
2024/01/21 07:48:35;;;;;;;92.80;31.35;;;;;;;-5.53;100.00;101572.91;5017295;28;20049;-70
2024/01/21 07:51:03;;;;;;;69.93;24.97;;;;;;;-5.43;100.00;101585.31;5036229;28;20042;-72
2024/01/21 07:53:33;;;;;;;91.43;30.70;;;;;;;-5.49;100.00;101588.53;5016688;28;20422;-72
2024/01/21 07:56:01;;;;;;;92.90;29.52;;;;;;;-5.54;100.00;101581.47;5029799;28;20132;-70
2024/01/21 07:58:29;;;;;;;93.00;31.40;;;;;;;-5.65;100.00;101570.72;5033138;28;20029;-71
2024/01/21 08:00:59;;;;;;;90.53;30.35;;;;;;;-5.53;100.00;101560.00;5034013;28;20052;-72
2024/01/21 08:03:30;;;;;;;88.78;28.15;;;;;;;-5.27;100.00;101568.66;5018872;28;20060;-72
2024/01/21 08:05:58;;;;;;;90.63;29.95;;;;;;;-5.15;100.00;101574.25;5016411;28;20134;-69
2024/01/21 08:08:28;;;;;;;84.88;28.77;;;;;;;-5.05;100.00;101586.69;5031044;28;20053;-71
2024/01/21 08:10:57;;;;;;;86.00;29.67;;;;;;;-4.86;100.00;101594.22;5020594;28;20056;-71
2024/01/21 08:13:25;;;;;;;82.28;30.38;;;;;;;-4.75;100.00;101587.75;5020463;28;20099;-70
2024/01/21 08:15:54;;;;;;;79.35;27.92;;;;;;;-4.65;100.00;101594.97;5031970;28;20057;-73
2024/01/21 08:18:24;;;;;;;75.80;28.65;;;;;;;-4.54;100.00;101607.34;5030151;28;20064;-71
2024/01/21 08:20:57;;;;;;;81.90;28.15;;;;;;;-4.50;100.00;101596.28;5033785;28;20038;-72
2024/01/21 08:23:28;;;;;;;75.43;28.25;;;;;;;-4.44;100.00;101609.44;5003223;28;20056;-72
2024/01/21 08:25:59;;;;;;;74.20;25.90;;;;;;;-4.45;100.00;101605.09;5015433;28;20064;-70
2024/01/21 08:28:30;;;;;;;77.13;26.40;;;;;;;-4.52;100.00;101600.53;5020873;28;20045;-73
2024/01/21 08:30:59;;;;;;;64.00;20.53;;;;;;;-4.51;100.00;101607.47;5040152;28;20522;-71
2024/01/21 08:33:27;;;;;;;77.03;26.88;;;;;;;-4.67;100.00;101606.94;5036382;28;20041;-71
2024/01/21 08:36:02;;;;;;;81.18;29.05;;;;;;;-4.88;100.00;101613.09;5019989;28;20421;-70
2024/01/21 08:38:31;;;;;;;86.43;27.70;;;;;;;-4.90;100.00;101623.38;5018991;28;20120;-71
2024/01/21 08:41:00;;;;;;;81.35;28.73;;;;;;;-4.88;100.00;101616.56;5023689;28;20136;-73
2024/01/21 08:43:32;;;;;;;80.32;29.67;;;;;;;-4.87;100.00;101605.38;5040148;28;20052;-73
2024/01/21 08:46:03;;;;;;;83.20;27.80;;;;;;;-4.79;100.00;101598.78;5036009;28;22232;-71
2024/01/21 08:48:31;;;;;;;86.57;29.20;;;;;;;-4.55;100.00;101608.19;5014940;28;20073;-72
2024/01/21 08:51:02;;;;;;;81.45;27.70;;;;;;;-4.49;100.00;101617.03;5040787;28;20064;-71
2024/01/21 08:53:31;;;;;;;87.65;29.05;;;;;;;-4.41;100.00;101594.03;5038022;28;20045;-70
2024/01/21 08:56:00;;;;;;;82.20;29.70;;;;;;;-4.32;100.00;101602.94;5035827;28;20502;-71
2024/01/21 08:58:31;;;;;;;83.95;30.38;;;;;;;-4.40;100.00;101593.16;5017217;28;20057;-72
2024/01/21 09:01:00;;;;;;;88.70;32.03;;;;;;;-4.30;100.00;101616.81;5022449;28;20052;-72
2024/01/21 09:03:31;;;;;;;79.28;27.30;;;;;;;-4.36;100.00;101623.47;5006959;28;20141;-71
2024/01/21 09:06:03;;;;;;;90.95;28.50;;;;;;;-4.50;100.00;101619.56;5033775;28;20045;-71
2024/01/21 09:08:32;;;;;;;84.32;28.42;;;;;;;-4.55;100.00;101624.56;5017458;28;20045;-70
2024/01/21 09:11:00;;;;;;;87.28;29.40;;;;;;;-4.63;100.00;101620.84;5023299;28;20053;-73
2024/01/21 09:13:29;;;;;;;93.47;32.17;;;;;;;-4.77;100.00;101642.78;5021789;28;20116;-73
2024/01/21 09:15:57;;;;;;;94.43;30.95;;;;;;;-4.83;100.00;101648.59;5023937;28;20042;-72
2024/01/21 09:18:26;;;;;;;91.93;30.45;;;;;;;-4.89;100.00;101648.41;5017453;28;20054;-73
2024/01/21 09:20:56;;;;;;;93.03;30.85;;;;;;;-4.77;100.00;101635.91;5020637;28;20053;-71
2024/01/21 09:23:27;;;;;;;92.80;30.98;;;;;;;-4.63;100.00;101608.81;5017957;28;20061;-73
2024/01/21 09:25:56;;;;;;;92.07;32.78;;;;;;;-4.37;100.00;101604.50;5023401;28;20049;-69
2024/01/21 09:28:31;;;;;;;98.43;32.45;;;;;;;-4.28;100.00;101599.66;5032935;28;20046;-71
2024/01/21 09:31:02;;;;;;;98.07;32.28;;;;;;;-4.33;100.00;101597.72;5032396;28;20045;-73
2024/01/21 09:33:31;;;;;;;90.82;30.40;;;;;;;-4.35;100.00;101595.09;5028395;28;20037;-71
2024/01/21 09:36:00;;;;;;;93.63;31.63;;;;;;;-4.43;100.00;101600.84;5026525;28;20045;-72
2024/01/21 09:38:30;;;;;;;101.63;34.08;;;;;;;-4.61;100.00;101614.91;5020367;28;20569;-72
2024/01/21 09:41:05;;;;;;;76.83;26.17;;;;;;;-4.76;100.00;101622.16;5031290;28;20045;-72
2024/01/21 09:43:36;;;;;;;108.22;34.88;;;;;;;-4.85;100.00;101614.06;5029070;28;20460;-72
2024/01/21 09:46:08;;;;;;;114.68;34.97;;;;;;;-4.84;100.00;101631.31;5042858;28;20405;-70
2024/01/21 09:48:36;;;;;;;111.00;34.72;;;;;;;-4.93;100.00;101646.53;5037672;28;20360;-70
2024/01/21 09:51:07;;;;;;;108.70;35.38;;;;;;;-5.02;100.00;101643.59;5026219;28;20107;-70
2024/01/21 09:53:40;;;;;;;113.60;36.17;;;;;;;-4.93;100.00;101674.06;5029996;28;20079;-71
2024/01/21 09:56:09;;;;;;;122.00;37.28;;;;;;;-4.89;100.00;101678.50;5025881;28;20124;-72
2024/01/21 09:58:45;;;;;;;131.43;38.38;;;;;;;-4.93;100.00;101681.81;5028982;28;20419;-69
2024/01/21 10:01:21;;;;;;;131.57;37.03;;;;;;;-5.02;100.00;101701.28;5049409;28;20377;-70
2024/01/21 10:03:51;;;;;;;99.05;31.73;;;;;;;-5.01;100.00;101717.69;5027302;28;20067;-70
2024/01/21 10:06:23;;;;;;;124.93;37.53;;;;;;;-4.97;100.00;101737.63;5025494;28;20457;-70
2024/01/21 10:08:53;;;;;;;127.47;37.97;;;;;;;-4.97;100.00;101719.56;5043146;28;20034;-69
2024/01/21 10:11:28;;;;;;;123.47;38.47;;;;;;;-5.01;100.00;101717.69;5044040;28;20524;-70
2024/01/21 10:13:59;;;;;;;107.75;35.65;;;;;;;-5.00;100.00;101703.94;5028530;28;20072;-70
2024/01/21 10:16:27;;;;;;;107.88;36.35;;;;;;;-4.90;100.00;101711.22;5043248;28;20051;-68
2024/01/21 10:18:55;;;;;;;111.45;35.58;;;;;;;-4.86;100.00;101712.19;5043010;28;20045;-70
2024/01/21 10:21:23;;;;;;;115.45;37.33;;;;;;;-4.84;100.00;101721.75;5029239;28;20049;-71
2024/01/21 10:23:56;;;;;;;114.90;35.20;;;;;;;-4.80;100.00;101694.34;5028801;28;20053;-74
2024/01/21 10:26:24;;;;;;;111.65;34.58;;;;;;;-4.76;100.00;101676.41;5031262;28;20103;-72
2024/01/21 10:28:53;;;;;;;114.10;36.45;;;;;;;-4.69;100.00;101675.78;5019327;28;20414;-73
2024/01/21 10:31:23;;;;;;;117.53;35.55;;;;;;;-4.71;100.00;101700.69;5028210;28;20045;-73
2024/01/21 10:33:55;;;;;;;114.32;36.33;;;;;;;-4.64;100.00;101696.63;5011313;28;20042;-71
2024/01/21 10:36:28;;;;;;;109.40;35.88;;;;;;;-4.54;100.00;101692.66;5046307;28;20045;-72
2024/01/21 10:39:02;;;;;;;109.25;35.35;;;;;;;-4.44;100.00;101692.16;5018134;28;20137;-71
2024/01/21 10:41:33;;;;;;;103.45;33.55;;;;;;;-4.43;100.00;101652.56;5030573;28;20063;-72
2024/01/21 10:44:03;;;;;;;104.07;35.72;;;;;;;-4.17;100.00;101653.41;5026605;28;20132;-69
2024/01/21 10:46:39;;;;;;;106.28;35.92;;;;;;;-4.05;100.00;101623.63;5025707;28;20075;-70
2024/01/21 10:49:13;;;;;;;93.57;33.33;;;;;;;-3.93;100.00;101612.78;5024905;28;20103;-69
2024/01/21 10:51:44;;;;;;;103.65;33.78;;;;;;;-3.82;100.00;101607.97;5030432;28;20041;-71
2024/01/21 10:54:16;;;;;;;94.15;34.08;;;;;;;-3.78;100.00;101608.09;5033398;28;20041;-72
2024/01/21 10:56:48;;;;;;;95.55;32.95;;;;;;;-3.63;100.00;101621.50;5027812;28;20099;-72
2024/01/21 10:59:17;;;;;;;93.15;33.60;;;;;;;-3.53;100.00;101618.34;5037951;28;20092;-73
2024/01/21 11:01:46;;;;;;;91.28;33.92;;;;;;;-3.59;100.00;101576.72;5041317;28;20064;-71
2024/01/21 11:04:15;;;;;;;99.05;36.17;;;;;;;-3.43;100.00;101557.34;5047189;28;20113;-72
2024/01/21 11:06:48;;;;;;;98.50;34.53;;;;;;;-3.24;100.00;101569.09;5013265;28;20163;-71
2024/01/21 11:09:22;;;;;;;96.25;34.30;;;;;;;-3.10;100.00;101559.09;5032729;28;20049;-71
2024/01/21 11:11:52;;;;;;;100.03;35.22;;;;;;;-3.19;100.00;101578.75;5041054;28;20568;-71
2024/01/21 11:14:30;;;;;;;103.25;36.15;;;;;;;-3.50;100.00;101568.38;5020147;28;20139;-71